sensor_id;sensor_type;location;lat;lon;timestamp;pressure;altitude;pressure_sealevel;temperature;humidity
15529;BME280;7866;52.280;9.500;2023-07-22T00:00:15;100015.38;;;15.08;80.71
15529;BME280;7866;52.280;9.500;2023-07-22T00:05:17;100023.47;;;15.08;80.68
15529;BME280;7866;52.280;9.500;2023-07-22T00:10:24;100025.16;;;15.02;81.03
15529;BME280;7866;52.280;9.500;2023-07-22T00:15:26;100025.97;;;15.02;80.78
15529;BME280;7866;52.280;9.500;2023-07-22T00:20:27;100033.44;;;14.94;80.68
15529;BME280;7866;52.280;9.500;2023-07-22T00:25:30;100024.69;;;14.92;81.00
15529;BME280;7866;52.280;9.500;2023-07-22T00:30:32;100033.59;;;14.79;81.28
15529;BME280;7866;52.280;9.500;2023-07-22T00:35:35;100038.56;;;14.75;80.82
15529;BME280;7866;52.280;9.500;2023-07-22T00:40:38;100038.34;;;14.70;81.47
15529;BME280;7866;52.280;9.500;2023-07-22T00:45:40;100036.69;;;14.63;81.68
15529;BME280;7866;52.280;9.500;2023-07-22T00:50:42;100036.28;;;14.66;81.68
15529;BME280;7866;52.280;9.500;2023-07-22T00:55:45;100012.03;;;14.79;81.50
15529;BME280;7866;52.280;9.500;2023-07-22T01:00:47;100023.84;;;14.65;81.14
15529;BME280;7866;52.280;9.500;2023-07-22T01:05:49;100025.09;;;14.69;81.61
15529;BME280;7866;52.280;9.500;2023-07-22T01:10:53;100025.03;;;14.56;81.44
15529;BME280;7866;52.280;9.500;2023-07-22T01:15:55;100028.47;;;14.36;81.38
15529;BME280;7866;52.280;9.500;2023-07-22T01:20:56;100021.34;;;14.63;81.30
15529;BME280;7866;52.280;9.500;2023-07-22T01:26:00;100024.44;;;14.53;81.22
15529;BME280;7866;52.280;9.500;2023-07-22T01:31:03;100026.44;;;14.45;81.32
15529;BME280;7866;52.280;9.500;2023-07-22T01:36:05;100022.56;;;14.54;81.03
15529;BME280;7866;52.280;9.500;2023-07-22T01:41:09;100011.28;;;14.44;80.76
15529;BME280;7866;52.280;9.500;2023-07-22T01:46:10;100017.47;;;14.31;81.06
15529;BME280;7866;52.280;9.500;2023-07-22T01:51:12;100013.56;;;14.34;81.05
15529;BME280;7866;52.280;9.500;2023-07-22T01:56:16;100007.94;;;14.35;80.67
15529;BME280;7866;52.280;9.500;2023-07-22T02:01:17;100015.44;;;14.46;79.98
15529;BME280;7866;52.280;9.500;2023-07-22T02:06:19;100012.31;;;14.43;79.64
15529;BME280;7866;52.280;9.500;2023-07-22T02:11:22;100018.75;;;14.42;79.44
15529;BME280;7866;52.280;9.500;2023-07-22T02:16:24;100024.16;;;14.42;79.23
15529;BME280;7866;52.280;9.500;2023-07-22T02:21:25;100018.72;;;14.35;78.78
15529;BME280;7866;52.280;9.500;2023-07-22T02:26:29;100025.38;;;14.33;79.03
15529;BME280;7866;52.280;9.500;2023-07-22T02:31:31;100027.38;;;14.17;79.38
15529;BME280;7866;52.280;9.500;2023-07-22T02:36:32;100036.06;;;14.19;79.60
15529;BME280;7866;52.280;9.500;2023-07-22T02:41:36;100030.25;;;14.16;80.70
15529;BME280;7866;52.280;9.500;2023-07-22T02:46:37;100042.28;;;14.20;80.48
15529;BME280;7866;52.280;9.500;2023-07-22T02:51:39;100040.78;;;14.11;81.07
15529;BME280;7866;52.280;9.500;2023-07-22T02:56:42;100048.66;;;14.05;80.60
15529;BME280;7866;52.280;9.500;2023-07-22T03:01:43;100050.06;;;14.01;81.07
15529;BME280;7866;52.280;9.500;2023-07-22T03:06:46;100057.03;;;13.89;81.40
15529;BME280;7866;52.280;9.500;2023-07-22T03:11:49;100037.75;;;13.86;81.81
15529;BME280;7866;52.280;9.500;2023-07-22T03:16:50;100054.78;;;13.93;81.98
15529;BME280;7866;52.280;9.500;2023-07-22T03:21:54;100058.31;;;13.93;81.12
15529;BME280;7866;52.280;9.500;2023-07-22T03:26:56;100052.94;;;14.00;80.86
15529;BME280;7866;52.280;9.500;2023-07-22T03:31:58;100061.22;;;13.98;80.68
15529;BME280;7866;52.280;9.500;2023-07-22T03:37:00;100063.75;;;14.07;80.89
15529;BME280;7866;52.280;9.500;2023-07-22T03:42:03;100069.97;;;14.07;80.67
15529;BME280;7866;52.280;9.500;2023-07-22T03:47:05;100066.25;;;14.08;80.63
15529;BME280;7866;52.280;9.500;2023-07-22T03:52:07;100075.91;;;13.96;80.44
15529;BME280;7866;52.280;9.500;2023-07-22T03:57:10;100078.25;;;14.05;80.48
15529;BME280;7866;52.280;9.500;2023-07-22T04:02:12;100075.44;;;14.20;80.02
15529;BME280;7866;52.280;9.500;2023-07-22T04:07:13;100075.19;;;14.09;80.33
15529;BME280;7866;52.280;9.500;2023-07-22T04:12:16;100062.81;;;14.21;80.12
15529;BME280;7866;52.280;9.500;2023-07-22T04:17:18;100083.09;;;14.17;79.60
15529;BME280;7866;52.280;9.500;2023-07-22T04:22:20;100081.72;;;14.34;79.65
15529;BME280;7866;52.280;9.500;2023-07-22T04:27:23;100085.50;;;14.46;78.51
15529;BME280;7866;52.280;9.500;2023-07-22T04:32:25;100084.31;;;14.56;78.39
15529;BME280;7866;52.280;9.500;2023-07-22T04:37:26;100090.97;;;14.60;78.32
15529;BME280;7866;52.280;9.500;2023-07-22T04:42:29;100094.28;;;14.55;78.46
15529;BME280;7866;52.280;9.500;2023-07-22T04:47:31;100089.34;;;14.72;78.75
15529;BME280;7866;52.280;9.500;2023-07-22T04:52:33;100094.41;;;14.40;79.02
15529;BME280;7866;52.280;9.500;2023-07-22T04:57:36;100095.94;;;14.56;79.11
15529;BME280;7866;52.280;9.500;2023-07-22T05:02:37;100088.75;;;14.70;79.13
15529;BME280;7866;52.280;9.500;2023-07-22T05:07:39;100095.81;;;14.77;78.72
15529;BME280;7866;52.280;9.500;2023-07-22T05:12:42;100096.50;;;14.93;78.52
15529;BME280;7866;52.280;9.500;2023-07-22T05:17:44;100096.94;;;15.23;77.95
15529;BME280;7866;52.280;9.500;2023-07-22T05:22:45;100100.53;;;15.83;75.95
15529;BME280;7866;52.280;9.500;2023-07-22T05:27:49;100101.78;;;15.94;75.28
15529;BME280;7866;52.280;9.500;2023-07-22T05:32:51;100108.09;;;16.39;74.64
15529;BME280;7866;52.280;9.500;2023-07-22T05:37:53;100107.03;;;16.47;74.11
15529;BME280;7866;52.280;9.500;2023-07-22T05:42:56;100111.59;;;16.53;74.05
15529;BME280;7866;52.280;9.500;2023-07-22T05:47:58;100118.75;;;16.21;75.16
15529;BME280;7866;52.280;9.500;2023-07-22T05:52:59;100126.34;;;16.64;74.66
15529;BME280;7866;52.280;9.500;2023-07-22T05:58:03;100122.44;;;16.46;74.63
15529;BME280;7866;52.280;9.500;2023-07-22T06:03:06;100117.72;;;16.15;75.94
15529;BME280;7866;52.280;9.500;2023-07-22T06:08:08;100126.56;;;16.56;76.05
15529;BME280;7866;52.280;9.500;2023-07-22T06:13:11;100115.16;;;17.30;74.48
15529;BME280;7866;52.280;9.500;2023-07-22T06:18:12;100118.41;;;17.14;73.42
15529;BME280;7866;52.280;9.500;2023-07-22T06:23:14;100130.44;;;17.49;73.59
15529;BME280;7866;52.280;9.500;2023-07-22T06:28:17;100122.69;;;17.85;72.15
15529;BME280;7866;52.280;9.500;2023-07-22T06:33:18;100119.38;;;17.83;71.57
15529;BME280;7866;52.280;9.500;2023-07-22T06:38:20;100116.63;;;17.89;71.49
15529;BME280;7866;52.280;9.500;2023-07-22T06:43:23;100129.00;;;18.22;70.17
15529;BME280;7866;52.280;9.500;2023-07-22T06:48:24;100135.88;;;18.43;70.03
15529;BME280;7866;52.280;9.500;2023-07-22T06:53:26;100130.00;;;18.46;70.63
15529;BME280;7866;52.280;9.500;2023-07-22T06:58:29;100134.59;;;18.45;70.39
15529;BME280;7866;52.280;9.500;2023-07-22T07:03:31;100142.44;;;18.54;69.67
15529;BME280;7866;52.280;9.500;2023-07-22T07:08:32;100128.28;;;18.70;69.93
15529;BME280;7866;52.280;9.500;2023-07-22T07:13:35;100128.19;;;18.58;69.21
15529;BME280;7866;52.280;9.500;2023-07-22T07:18:38;100136.25;;;18.65;70.28
15529;BME280;7866;52.280;9.500;2023-07-22T07:23:39;100134.81;;;18.62;70.72
15529;BME280;7866;52.280;9.500;2023-07-22T07:28:43;100138.00;;;18.78;70.16
15529;BME280;7866;52.280;9.500;2023-07-22T07:33:44;100142.97;;;19.11;69.35
15529;BME280;7866;52.280;9.500;2023-07-22T07:38:46;100149.41;;;18.98;69.48
15529;BME280;7866;52.280;9.500;2023-07-22T07:43:49;100157.19;;;18.94;69.39
15529;BME280;7866;52.280;9.500;2023-07-22T07:48:52;100149.72;;;19.08;68.98
15529;BME280;7866;52.280;9.500;2023-07-22T07:53:54;100150.88;;;18.45;71.03
15529;BME280;7866;52.280;9.500;2023-07-22T07:58:57;100155.53;;;18.57;69.94
15529;BME280;7866;52.280;9.500;2023-07-22T08:03:59;100157.50;;;18.86;68.64
15529;BME280;7866;52.280;9.500;2023-07-22T08:09:00;100156.56;;;19.41;67.47
15529;BME280;7866;52.280;9.500;2023-07-22T08:14:04;100159.50;;;19.69;65.73
15529;BME280;7866;52.280;9.500;2023-07-22T08:19:08;100156.84;;;19.21;66.93
15529;BME280;7866;52.280;9.500;2023-07-22T08:24:10;100157.16;;;19.43;66.73
15529;BME280;7866;52.280;9.500;2023-07-22T08:29:13;100161.56;;;19.26;67.93
15529;BME280;7866;52.280;9.500;2023-07-22T08:34:14;100159.09;;;19.24;67.09
15529;BME280;7866;52.280;9.500;2023-07-22T08:39:16;100165.53;;;19.41;67.33
15529;BME280;7866;52.280;9.500;2023-07-22T08:44:20;100160.94;;;19.12;68.23
15529;BME280;7866;52.280;9.500;2023-07-22T08:49:22;100164.41;;;19.19;68.13
15529;BME280;7866;52.280;9.500;2023-07-22T08:54:24;100167.34;;;19.48;67.49
15529;BME280;7866;52.280;9.500;2023-07-22T08:59:27;100169.53;;;19.69;66.67
15529;BME280;7866;52.280;9.500;2023-07-22T09:04:29;100152.81;;;19.54;66.67
15529;BME280;7866;52.280;9.500;2023-07-22T09:09:30;100159.41;;;19.76;66.28
15529;BME280;7866;52.280;9.500;2023-07-22T09:14:34;100160.38;;;19.52;66.60
15529;BME280;7866;52.280;9.500;2023-07-22T09:19:36;100146.28;;;19.73;66.79
15529;BME280;7866;52.280;9.500;2023-07-22T09:24:38;100153.25;;;19.92;66.16
15529;BME280;7866;52.280;9.500;2023-07-22T09:29:41;100146.41;;;19.90;65.32
15529;BME280;7866;52.280;9.500;2023-07-22T09:34:54;100134.59;;;20.55;63.11
15529;BME280;7866;52.280;9.500;2023-07-22T09:39:56;100134.81;;;20.06;62.88
15529;BME280;7866;52.280;9.500;2023-07-22T09:44:58;100143.13;;;20.11;63.97
15529;BME280;7866;52.280;9.500;2023-07-22T09:50:00;100141.31;;;19.93;65.61
15529;BME280;7866;52.280;9.500;2023-07-22T09:55:02;100143.69;;;20.02;63.69
15529;BME280;7866;52.280;9.500;2023-07-22T10:00:06;100144.03;;;20.05;63.21
15529;BME280;7866;52.280;9.500;2023-07-22T10:05:12;100139.78;;;20.56;62.13
15529;BME280;7866;52.280;9.500;2023-07-22T10:10:16;100139.53;;;20.23;62.11
15529;BME280;7866;52.280;9.500;2023-07-22T10:15:19;100126.03;;;20.75;60.67
15529;BME280;7866;52.280;9.500;2023-07-22T10:20:22;100121.22;;;20.53;61.11
15529;BME280;7866;52.280;9.500;2023-07-22T10:25:24;100124.00;;;20.70;60.97
15529;BME280;7866;52.280;9.500;2023-07-22T10:30:27;100131.50;;;21.20;59.16
15529;BME280;7866;52.280;9.500;2023-07-22T10:35:41;100121.28;;;21.73;57.13
15529;BME280;7866;52.280;9.500;2023-07-22T10:40:47;100119.19;;;21.97;57.79
15529;BME280;7866;52.280;9.500;2023-07-22T10:45:52;100117.69;;;22.06;57.51
15529;BME280;7866;52.280;9.500;2023-07-22T10:50:57;100119.97;;;21.30;58.79
15529;BME280;7866;52.280;9.500;2023-07-22T10:56:03;100117.25;;;21.30;58.82
15529;BME280;7866;52.280;9.500;2023-07-22T11:01:34;100112.50;;;20.80;58.31
15529;BME280;7866;52.280;9.500;2023-07-22T11:06:37;100116.94;;;20.46;61.80
15529;BME280;7866;52.280;9.500;2023-07-22T11:11:44;100110.56;;;20.40;62.07
15529;BME280;7866;52.280;9.500;2023-07-22T11:16:48;100108.22;;;21.58;58.70
15529;BME280;7866;52.280;9.500;2023-07-22T11:21:51;100106.00;;;21.26;58.15
15529;BME280;7866;52.280;9.500;2023-07-22T11:26:53;100101.75;;;21.02;59.70
15529;BME280;7866;52.280;9.500;2023-07-22T11:31:56;100099.69;;;20.52;60.72
15529;BME280;7866;52.280;9.500;2023-07-22T11:36:58;100103.63;;;20.21;62.27
15529;BME280;7866;52.280;9.500;2023-07-22T11:42:00;100103.16;;;20.24;62.07
15529;BME280;7866;52.280;9.500;2023-07-22T11:47:06;100091.72;;;20.62;61.48
15529;BME280;7866;52.280;9.500;2023-07-22T11:52:09;100090.16;;;21.52;59.09
15529;BME280;7866;52.280;9.500;2023-07-22T11:57:13;100080.03;;;22.42;56.01
15529;BME280;7866;52.280;9.500;2023-07-22T12:02:18;100075.97;;;23.15;54.62
15529;BME280;7866;52.280;9.500;2023-07-22T12:07:24;100067.00;;;23.52;52.84
15529;BME280;7866;52.280;9.500;2023-07-22T12:12:33;100063.44;;;22.92;53.47
15529;BME280;7866;52.280;9.500;2023-07-22T12:17:51;100068.63;;;22.94;53.55
15529;BME280;7866;52.280;9.500;2023-07-22T12:22:53;100060.16;;;22.68;55.72
15529;BME280;7866;52.280;9.500;2023-07-22T12:27:54;100053.91;;;22.07;55.52
15529;BME280;7866;52.280;9.500;2023-07-22T12:32:57;100055.41;;;21.98;56.65
15529;BME280;7866;52.280;9.500;2023-07-22T12:37:59;100053.41;;;21.71;57.47
15529;BME280;7866;52.280;9.500;2023-07-22T12:43:00;100052.47;;;21.49;59.38
15529;BME280;7866;52.280;9.500;2023-07-22T12:48:03;100049.59;;;21.72;60.02
15529;BME280;7866;52.280;9.500;2023-07-22T12:53:06;100043.25;;;21.67;61.19
15529;BME280;7866;52.280;9.500;2023-07-22T12:58:08;100045.19;;;21.88;58.23
15529;BME280;7866;52.280;9.500;2023-07-22T13:03:12;100030.22;;;23.32;54.97
15529;BME280;7866;52.280;9.500;2023-07-22T13:08:13;100026.44;;;23.06;55.82
15529;BME280;7866;52.280;9.500;2023-07-22T13:13:15;100013.44;;;22.65;55.95
15529;BME280;7866;52.280;9.500;2023-07-22T13:18:18;100026.03;;;22.93;53.66
15529;BME280;7866;52.280;9.500;2023-07-22T13:23:19;100013.31;;;23.41;52.97
15529;BME280;7866;52.280;9.500;2023-07-22T13:28:21;100027.22;;;23.34;51.86
15529;BME280;7866;52.280;9.500;2023-07-22T13:33:25;100012.34;;;23.57;50.32
15529;BME280;7866;52.280;9.500;2023-07-22T13:38:27;100023.41;;;23.03;52.18
15529;BME280;7866;52.280;9.500;2023-07-22T13:43:28;100012.63;;;22.91;51.83
15529;BME280;7866;52.280;9.500;2023-07-22T13:48:31;100006.41;;;22.96;53.09
15529;BME280;7866;52.280;9.500;2023-07-22T13:53:33;100001.81;;;22.74;53.01
15529;BME280;7866;52.280;9.500;2023-07-22T13:58:34;100004.16;;;22.66;53.47
15529;BME280;7866;52.280;9.500;2023-07-22T14:03:37;99989.25;;;23.38;53.08
15529;BME280;7866;52.280;9.500;2023-07-22T14:08:39;99978.19;;;24.02;48.54
15529;BME280;7866;52.280;9.500;2023-07-22T14:13:42;99974.03;;;22.82;50.88
15529;BME280;7866;52.280;9.500;2023-07-22T14:18:45;99975.88;;;23.41;50.55
15529;BME280;7866;52.280;9.500;2023-07-22T14:23:46;99976.69;;;23.36;50.13
15529;BME280;7866;52.280;9.500;2023-07-22T14:28:48;99968.78;;;23.03;50.77
15529;BME280;7866;52.280;9.500;2023-07-22T14:33:52;99963.34;;;23.08;51.31
15529;BME280;7866;52.280;9.500;2023-07-22T14:38:54;99968.13;;;23.23;51.29
15529;BME280;7866;52.280;9.500;2023-07-22T14:43:56;99968.28;;;23.11;50.29
15529;BME280;7866;52.280;9.500;2023-07-22T14:48:59;99959.44;;;23.31;50.53
15529;BME280;7866;52.280;9.500;2023-07-22T14:54:00;99960.56;;;23.40;49.74
15529;BME280;7866;52.280;9.500;2023-07-22T14:59:02;99949.59;;;22.98;49.53
15529;BME280;7866;52.280;9.500;2023-07-22T15:04:06;99945.56;;;23.05;50.11
15529;BME280;7866;52.280;9.500;2023-07-22T15:09:08;99942.72;;;23.22;49.26
15529;BME280;7866;52.280;9.500;2023-07-22T15:14:10;99938.28;;;23.16;49.00
15529;BME280;7866;52.280;9.500;2023-07-22T15:19:13;99941.03;;;23.21;48.26
15529;BME280;7866;52.280;9.500;2023-07-22T15:24:15;99943.34;;;23.40;49.38
15529;BME280;7866;52.280;9.500;2023-07-22T15:29:16;99931.16;;;23.10;49.36
15529;BME280;7866;52.280;9.500;2023-07-22T15:34:19;99930.88;;;22.84;49.94
15529;BME280;7866;52.280;9.500;2023-07-22T15:39:21;99926.19;;;22.75;49.85
15529;BME280;7866;52.280;9.500;2023-07-22T15:44:22;99919.28;;;22.94;49.60
15529;BME280;7866;52.280;9.500;2023-07-22T15:49:28;99923.16;;;23.03;49.69
15529;BME280;7866;52.280;9.500;2023-07-22T15:54:31;99918.44;;;22.94;50.50
15529;BME280;7866;52.280;9.500;2023-07-22T15:59:32;99914.28;;;22.59;51.11
15529;BME280;7866;52.280;9.500;2023-07-22T16:04:35;99909.50;;;22.44;49.29
15529;BME280;7866;52.280;9.500;2023-07-22T16:09:37;99911.00;;;22.57;49.06
15529;BME280;7866;52.280;9.500;2023-07-22T16:14:38;99906.88;;;22.54;48.99
15529;BME280;7866;52.280;9.500;2023-07-22T16:19:41;99916.69;;;22.50;49.29
15529;BME280;7866;52.280;9.500;2023-07-22T16:24:43;99911.06;;;22.35;48.63
15529;BME280;7866;52.280;9.500;2023-07-22T16:29:45;99909.63;;;22.54;48.06
15529;BME280;7866;52.280;9.500;2023-07-22T16:34:48;99909.50;;;22.44;48.21
15529;BME280;7866;52.280;9.500;2023-07-22T16:39:49;99904.91;;;22.50;48.33
15529;BME280;7866;52.280;9.500;2023-07-22T16:44:53;99892.38;;;22.54;48.79
15529;BME280;7866;52.280;9.500;2023-07-22T16:49:56;99894.06;;;22.55;49.63
15529;BME280;7866;52.280;9.500;2023-07-22T16:54:58;99898.97;;;22.58;50.77
15529;BME280;7866;52.280;9.500;2023-07-22T16:59:59;99895.19;;;22.32;51.96
15529;BME280;7866;52.280;9.500;2023-07-22T17:05:03;99889.63;;;22.00;51.49
15529;BME280;7866;52.280;9.500;2023-07-22T17:10:06;99885.72;;;22.40;51.82
15529;BME280;7866;52.280;9.500;2023-07-22T17:15:09;99895.81;;;22.39;53.17
15529;BME280;7866;52.280;9.500;2023-07-22T17:20:13;99890.47;;;22.22;51.68
15529;BME280;7866;52.280;9.500;2023-07-22T17:25:14;99908.22;;;22.03;51.45
15529;BME280;7866;52.280;9.500;2023-07-22T17:30:17;99910.47;;;21.45;53.95
15529;BME280;7866;52.280;9.500;2023-07-22T17:35:20;99909.03;;;21.04;55.28
15529;BME280;7866;52.280;9.500;2023-07-22T17:40:22;99904.66;;;21.03;55.09
15529;BME280;7866;52.280;9.500;2023-07-22T17:45:26;99904.97;;;21.06;55.19
15529;BME280;7866;52.280;9.500;2023-07-22T17:50:29;99898.03;;;20.65;56.63
15529;BME280;7866;52.280;9.500;2023-07-22T17:55:30;99916.66;;;20.56;56.88
15529;BME280;7866;52.280;9.500;2023-07-22T18:00:32;99912.31;;;20.55;57.33
15529;BME280;7866;52.280;9.500;2023-07-22T18:05:35;99911.41;;;20.38;57.75
15529;BME280;7866;52.280;9.500;2023-07-22T18:10:37;99909.81;;;20.25;58.01
15529;BME280;7866;52.280;9.500;2023-07-22T18:15:38;99901.22;;;20.16;58.52
15529;BME280;7866;52.280;9.500;2023-07-22T18:20:42;99895.00;;;20.04;58.72
15529;BME280;7866;52.280;9.500;2023-07-22T18:25:43;99903.47;;;19.91;58.87
15529;BME280;7866;52.280;9.500;2023-07-22T18:30:45;99900.84;;;19.96;59.08
15529;BME280;7866;52.280;9.500;2023-07-22T18:35:50;99901.25;;;19.76;59.44
15529;BME280;7866;52.280;9.500;2023-07-22T18:40:52;99910.59;;;19.68;59.88
15529;BME280;7866;52.280;9.500;2023-07-22T18:45:54;99921.56;;;19.50;61.01
15529;BME280;7866;52.280;9.500;2023-07-22T18:50:57;99922.97;;;19.53;60.76
15529;BME280;7866;52.280;9.500;2023-07-22T18:55:58;99923.47;;;19.26;61.92
15529;BME280;7866;52.280;9.500;2023-07-22T19:01:00;99921.47;;;19.33;62.16
15529;BME280;7866;52.280;9.500;2023-07-22T19:06:03;99921.25;;;19.23;62.28
15529;BME280;7866;52.280;9.500;2023-07-22T19:11:05;99919.22;;;19.07;63.35
15529;BME280;7866;52.280;9.500;2023-07-22T19:16:09;99923.53;;;18.73;64.70
15529;BME280;7866;52.280;9.500;2023-07-22T19:21:12;99934.00;;;18.69;65.31
15529;BME280;7866;52.280;9.500;2023-07-22T19:26:14;99934.41;;;18.73;65.24
15529;BME280;7866;52.280;9.500;2023-07-22T19:31:15;99938.47;;;18.63;65.55
15529;BME280;7866;52.280;9.500;2023-07-22T19:36:19;99947.44;;;18.64;65.86
15529;BME280;7866;52.280;9.500;2023-07-22T19:41:20;99953.59;;;18.41;66.73
15529;BME280;7866;52.280;9.500;2023-07-22T19:46:22;99956.56;;;18.39;67.37
15529;BME280;7866;52.280;9.500;2023-07-22T19:51:25;99945.91;;;18.08;68.58
15529;BME280;7866;52.280;9.500;2023-07-22T19:56:27;99945.91;;;18.08;68.52
15529;BME280;7866;52.280;9.500;2023-07-22T20:01:28;99938.81;;;18.25;68.36
15529;BME280;7866;52.280;9.500;2023-07-22T20:06:31;99940.59;;;18.31;67.95
15529;BME280;7866;52.280;9.500;2023-07-22T20:11:33;99941.81;;;18.35;67.78
15529;BME280;7866;52.280;9.500;2023-07-22T20:16:35;99935.34;;;18.18;68.37
15529;BME280;7866;52.280;9.500;2023-07-22T20:21:38;99937.81;;;18.50;67.65
15529;BME280;7866;52.280;9.500;2023-07-22T20:26:39;99930.75;;;18.49;67.99
15529;BME280;7866;52.280;9.500;2023-07-22T20:31:41;99922.25;;;18.45;68.28
15529;BME280;7866;52.280;9.500;2023-07-22T20:36:44;99931.53;;;18.37;68.36
15529;BME280;7866;52.280;9.500;2023-07-22T20:41:46;99931.13;;;18.22;69.29
15529;BME280;7866;52.280;9.500;2023-07-22T20:46:48;99930.75;;;18.18;69.70
15529;BME280;7866;52.280;9.500;2023-07-22T20:51:51;99928.28;;;18.17;70.03
15529;BME280;7866;52.280;9.500;2023-07-22T20:56:53;99933.00;;;18.21;69.77
15529;BME280;7866;52.280;9.500;2023-07-22T21:01:55;99935.06;;;18.08;70.50
15529;BME280;7866;52.280;9.500;2023-07-22T21:06:58;99931.75;;;18.06;70.69
15529;BME280;7866;52.280;9.500;2023-07-22T21:12:00;99943.34;;;18.13;71.10
15529;BME280;7866;52.280;9.500;2023-07-22T21:17:02;99942.97;;;18.09;71.40
15529;BME280;7866;52.280;9.500;2023-07-22T21:22:06;99943.09;;;18.14;71.18
15529;BME280;7866;52.280;9.500;2023-07-22T21:27:08;99951.34;;;18.08;71.66
15529;BME280;7866;52.280;9.500;2023-07-22T21:32:09;99945.69;;;18.09;71.93
15529;BME280;7866;52.280;9.500;2023-07-22T21:37:12;99953.38;;;17.94;73.29
15529;BME280;7866;52.280;9.500;2023-07-22T21:42:14;99946.28;;;17.75;73.84
15529;BME280;7866;52.280;9.500;2023-07-22T21:47:15;99952.91;;;17.79;74.14
15529;BME280;7866;52.280;9.500;2023-07-22T21:52:18;99960.59;;;17.82;73.82
15529;BME280;7866;52.280;9.500;2023-07-22T21:57:20;99965.44;;;17.80;74.20
15529;BME280;7866;52.280;9.500;2023-07-22T22:02:22;99971.38;;;17.88;74.65
15529;BME280;7866;52.280;9.500;2023-07-22T22:07:25;99968.59;;;17.77;75.10
15529;BME280;7866;52.280;9.500;2023-07-22T22:12:26;99970.75;;;17.43;76.74
15529;BME280;7866;52.280;9.500;2023-07-22T22:17:28;99971.44;;;17.38;77.44
15529;BME280;7866;52.280;9.500;2023-07-22T22:22:31;99974.81;;;17.34;77.84
15529;BME280;7866;52.280;9.500;2023-07-22T22:27:33;99973.94;;;17.40;78.34
15529;BME280;7866;52.280;9.500;2023-07-22T22:32:34;99972.34;;;17.32;78.88
15529;BME280;7866;52.280;9.500;2023-07-22T22:37:37;99969.53;;;17.20;78.91
15529;BME280;7866;52.280;9.500;2023-07-22T22:42:39;99964.69;;;17.22;79.67
15529;BME280;7866;52.280;9.500;2023-07-22T22:47:41;99963.22;;;17.27;79.73
15529;BME280;7866;52.280;9.500;2023-07-22T22:52:44;99961.06;;;17.10;80.30
15529;BME280;7866;52.280;9.500;2023-07-22T22:57:45;99954.16;;;17.14;80.60
15529;BME280;7866;52.280;9.500;2023-07-22T23:02:47;99958.88;;;17.01;81.09
15529;BME280;7866;52.280;9.500;2023-07-22T23:07:51;99953.03;;;17.04;81.91
15529;BME280;7866;52.280;9.500;2023-07-22T23:12:53;99944.63;;;17.12;81.37
15529;BME280;7866;52.280;9.500;2023-07-22T23:17:55;99944.78;;;17.17;81.00
15529;BME280;7866;52.280;9.500;2023-07-22T23:22:59;99938.00;;;17.08;81.60
15529;BME280;7866;52.280;9.500;2023-07-22T23:28:01;99935.78;;;16.98;82.21
15529;BME280;7866;52.280;9.500;2023-07-22T23:33:03;99930.41;;;16.91;83.01
15529;BME280;7866;52.280;9.500;2023-07-22T23:38:06;99919.16;;;16.94;83.37
15529;BME280;7866;52.280;9.500;2023-07-22T23:43:07;99913.53;;;16.96;83.34
15529;BME280;7866;52.280;9.500;2023-07-22T23:48:09;99911.75;;;16.83;83.34
15529;BME280;7866;52.280;9.500;2023-07-22T23:53:12;99917.41;;;16.82;83.78
15529;BME280;7866;52.280;9.500;2023-07-22T23:58:13;99902.66;;;16.78;83.37
